Time;durP1;ratioP1;P1;durP2;ratioP2;P2;SDS_P1;SDS_P2;PMS_P1;PMS_P2;Temp;Humidity;BMP_temperature;BMP_pressure;BME280_temperature;BME280_humidity;BME280_pressure;Samples;Min_cycle;Max_cycle;Signal;HPM_P1;HPM_P2
2021/12/15 00:00:41;;;;;;;;;;;;;;;18.43;50.05;102760.78;5044439;28;19924;-47
2021/12/15 00:03:07;;;;;;;;;;;;;;;18.43;49.95;102760.78;5044822;28;19913;-48
2021/12/15 00:05:32;;;;;;;;;;;;;;;18.42;50.08;102757.22;5044860;28;20009;-49
2021/12/15 00:07:59;;;;;;;;;;;;;;;18.41;49.92;102751.97;5045235;28;19920;-48
2021/12/15 00:10:24;;;;;;;;;;;;;;;18.41;50.15;102757.38;5044642;28;19946;-51
2021/12/15 00:12:49;;;;;;;;;;;;;;;18.41;50.08;102749.28;5044741;28;19963;-46
2021/12/15 00:15:15;;;;;;;;;;;;;;;18.40;50.09;102753.81;5044233;28;19921;-51
2021/12/15 00:17:40;;;;;;;;;;;;;;;18.39;49.84;102754.78;5044285;28;19920;-48
2021/12/15 00:20:09;;;;;;;;;;;;;;;18.39;49.87;102762.88;5044272;28;19936;-50
2021/12/15 00:22:34;;;;;;;;;;;;;;;18.38;49.89;102762.97;5044144;28;20397;-50
2021/12/15 00:24:59;;;;;;;;;;;;;;;18.37;49.91;102762.13;5044281;28;19948;-50
2021/12/15 00:27:24;;;;;;;;;;;;;;;18.37;49.91;102759.44;5044127;28;20419;-47
2021/12/15 00:29:49;;;;;;;;;;;;;;;18.37;49.92;102763.97;5044322;28;19917;-49
2021/12/15 00:32:15;;;;;;;;;;;;;;;18.35;50.12;102758.72;5043412;28;19917;-49
2021/12/15 00:34:41;;;;;;;;;;;;;;;18.36;50.01;102759.56;5044646;28;19923;-51
2021/12/15 00:37:06;;;;;;;;;;;;;;;18.35;50.03;102761.41;5044349;28;19913;-50
2021/12/15 00:39:31;;;;;;;;;;;;;;;18.34;50.10;102758.81;5044173;28;19959;-49
2021/12/15 00:41:57;;;;;;;;;;;;;;;18.34;49.89;102756.13;5043988;28;19935;-47
2021/12/15 00:44:22;;;;;;;;;;;;;;;18.33;49.92;102752.56;5043569;28;19913;-46
2021/12/15 00:46:50;;;;;;;;;;;;;;;18.33;49.81;102754.41;5043256;28;19920;-47
2021/12/15 00:49:15;;;;;;;;;;;;;;;18.32;50.07;102755.41;5043987;28;19924;-51
2021/12/15 00:51:42;;;;;;;;;;;;;;;18.31;49.85;102749.16;5043947;28;19944;-49
2021/12/15 00:54:08;;;;;;;;;;;;;;;18.32;49.91;102750.00;5044072;28;19940;-50
2021/12/15 00:56:34;;;;;;;;;;;;;;;18.30;50.00;102750.09;5043485;28;19913;-49
2021/12/15 00:58:59;;;;;;;;;;;;;;;18.30;50.00;102746.56;5043733;28;19913;-51
2021/12/15 01:01:26;;;;;;;;;;;;;;;18.30;50.10;102743.88;5043237;28;19974;-52
2021/12/15 01:03:51;;;;;;;;;;;;;;;18.30;49.92;102749.25;5043819;28;19928;-49
2021/12/15 01:06:20;;;;;;;;;;;;;;;18.28;49.88;102745.84;5042464;28;19919;-47
2021/12/15 01:08:47;;;;;;;;;;;;;;;18.28;50.07;102745.84;5043712;28;19913;-48
2021/12/15 01:11:32;;;;;;;;;;;;;;;18.27;49.89;102744.97;5043572;28;19917;-49
2021/12/15 01:19:51;;;;;;;;;;;;;;;18.26;50.01;102747.78;5043043;28;19924;-49
2021/12/15 01:22:17;;;;;;;;;;;;;;;18.26;49.96;102751.31;5043422;28;19913;-49
2021/12/15 01:24:42;;;;;;;;;;;;;;;18.25;49.97;102749.63;5023852;28;19945;-47
2021/12/15 01:27:07;;;;;;;;;;;;;;;18.24;49.94;102742.53;5027500;28;19913;-48
2021/12/15 01:29:32;;;;;;;;;;;;;;;18.25;49.76;102744.22;5043112;28;19924;-47
2021/12/15 01:31:58;;;;;;;;;;;;;;;18.24;49.75;102748.75;5042698;28;19913;-46
2021/12/15 01:34:23;;;;;;;;;;;;;;;18.22;50.02;102747.16;5043108;28;19917;-49
2021/12/15 01:36:48;;;;;;;;;;;;;;;18.21;49.84;102748.13;5043375;28;19917;-51
2021/12/15 01:39:13;;;;;;;;;;;;;;;18.22;49.87;102755.22;5042993;28;19945;-48
2021/12/15 01:41:38;;;;;;;;;;;;;;;18.21;49.84;102762.44;5032230;28;19914;-49
2021/12/15 01:49:20;;;;;;;;;;;;;;;18.20;49.79;102757.19;5031335;28;19977;-49
2021/12/15 01:51:45;;;;;;;;;;;;;;;18.20;49.76;102770.66;5042995;28;19925;-49
2021/12/15 01:54:11;;;;;;;;;;;;;;;18.09;49.83;102744.56;5042929;28;20286;-51
2021/12/15 01:56:36;;;;;;;;;;;;;;;18.19;49.95;102764.41;5042279;28;19948;-51
2021/12/15 01:59:01;;;;;;;;;;;;;;;18.19;49.86;102766.25;5042659;28;19928;-49
2021/12/15 02:01:26;;;;;;;;;;;;;;;18.17;49.96;102766.34;5042490;28;19975;-50
2021/12/15 02:03:52;;;;;;;;;;;;;;;18.18;49.71;102767.22;5042715;28;19920;-50
2021/12/15 02:06:17;;;;;;;;;;;;;;;18.16;49.96;102761.97;5042804;28;19914;-51
2021/12/15 02:08:43;;;;;;;;;;;;;;;18.17;49.72;102770.88;5042847;28;19914;-44
2021/12/15 02:11:09;;;;;;;;;;;;;;;18.16;49.95;102761.97;5042586;28;19913;-47
2021/12/15 02:13:34;;;;;;;;;;;;;;;18.16;49.87;102770.03;5042425;28;20336;-47
2021/12/15 02:16:00;;;;;;;;;;;;;;;18.16;49.85;102771.88;5042078;28;19925;-51
2021/12/15 02:18:28;;;;;;;;;;;;;;;18.14;49.92;102772.00;5042405;28;19931;-46
2021/12/15 02:21:01;;;;;;;;;;;;;;;18.15;49.89;102768.31;5042749;28;19914;-47
2021/12/15 02:23:33;;;;;;;;;;;;;;;18.14;49.80;102774.69;5042580;28;19972;-51
2021/12/15 02:25:59;;;;;;;;;;;;;;;18.14;49.77;102765.75;5042151;28;20018;-49
2021/12/15 02:28:24;;;;;;;;;;;;;;;18.13;49.70;102764.03;5028395;28;19914;-49
2021/12/15 02:30:55;;;;;;;;;;;;;;;18.13;49.69;102772.09;5020592;28;19989;-47
2021/12/15 02:38:34;;;;;;;;;;;;;;;18.11;49.89;102766.84;5022797;28;19960;-50
2021/12/15 02:41:07;;;;;;;;;;;;;;;18.11;49.91;102764.16;5022564;28;19981;-50
2021/12/15 02:43:32;;;;;;;;;;;;;;;18.11;49.78;102772.22;5022657;28;20039;-48
2021/12/15 02:45:57;;;;;;;;;;;;;;;18.11;49.74;102774.06;5023799;28;20489;-47
2021/12/15 02:48:22;;;;;;;;;;;;;;;18.10;49.71;102769.66;5042382;28;20376;-47
2021/12/15 02:50:48;;;;;;;;;;;;;;;18.10;49.75;102775.06;5042209;28;19924;-49
2021/12/15 02:53:13;;;;;;;;;;;;;;;18.09;49.95;102779.53;5042462;28;19913;-50
2021/12/15 02:55:38;;;;;;;;;;;;;;;18.08;49.84;102777.84;5041989;28;19939;-50
2021/12/15 02:58:03;;;;;;;;;;;;;;;18.08;49.90;102777.00;5042399;28;20568;-51
2021/12/15 03:00:43;;;;;;;;;;;;;;;18.08;49.73;102775.16;5041396;28;19920;-46
2021/12/15 03:05:48;;;;;;;;;;;;;;;18.08;49.63;102777.00;5047888;28;20350;-48
2021/12/15 03:08:19;;;;;;;;;;;;;;;18.07;49.80;102775.28;5043510;28;19913;-49
2021/12/15 03:16:14;;;;;;;;;;;;;;;18.06;49.87;102774.41;5044797;28;19944;-50
2021/12/15 03:18:39;;;;;;;;;;;;;;;18.05;49.76;102777.22;5045553;28;19917;-49
2021/12/15 03:21:06;;;;;;;;;;;;;;;18.04;49.69;102773.66;5045571;28;19913;-46
2021/12/15 03:23:44;;;;;;;;;;;;;;;18.04;49.81;102768.28;5045817;28;19913;-47
2021/12/15 03:26:11;;;;;;;;;;;;;;;18.03;49.83;102771.97;5045502;28;19936;-49
2021/12/15 03:34:12;;;;;;;;;;;;;;;18.03;49.73;102768.41;5025860;28;20581;-50
2021/12/15 03:39:22;;;;;;;;;;;;;;;18.02;49.76;102769.41;5032307;28;20015;-48
2021/12/15 03:41:55;;;;;;;;;;;;;;;18.00;49.82;102772.19;5025289;28;20467;-48
2021/12/15 03:44:20;;;;;;;;;;;;;;;17.99;49.66;102768.63;5025396;28;19914;-52
2021/12/15 03:46:45;;;;;;;;;;;;;;;17.99;49.65;102770.47;5032660;28;19944;-50
2021/12/15 03:49:11;;;;;;;;;;;;;;;17.99;49.85;102770.47;5045132;28;20578;-51
2021/12/15 03:51:36;;;;;;;;;;;;;;;17.98;49.80;102776.84;5045134;28;19943;-46
2021/12/15 03:54:02;;;;;;;;;;;;;;;17.98;49.66;102776.84;5045328;28;19928;-52
2021/12/15 03:56:27;;;;;;;;;;;;;;;17.97;49.83;102775.13;5044787;28;19913;-49
2021/12/15 03:58:53;;;;;;;;;;;;;;;17.95;49.85;102775.22;5045260;28;19944;-48
2021/12/15 04:01:19;;;;;;;;;;;;;;;17.96;49.77;102770.69;5044590;28;19936;-49
2021/12/15 04:03:45;;;;;;;;;;;;;;;17.95;49.87;102771.69;5044898;28;20374;-48
2021/12/15 04:06:12;;;;;;;;;;;;;;;17.95;49.83;102782.44;5044782;28;19925;-49
2021/12/15 04:08:40;;;;;;;;;;;;;;;17.95;49.49;102785.13;5044930;28;19920;-47
2021/12/15 04:11:05;;;;;;;;;;;;;;;17.95;49.74;102794.06;5044485;28;19976;-49
2021/12/15 04:13:31;;;;;;;;;;;;;;;17.94;49.68;102791.50;5044665;28;19917;-48
2021/12/15 04:16:04;;;;;;;;;;;;;;;17.93;49.57;102787.97;5043551;28;19952;-51
2021/12/15 04:18:29;;;;;;;;;;;;;;;17.93;49.64;102792.50;5044826;28;19941;-49
2021/12/15 04:20:54;;;;;;;;;;;;;;;17.93;49.68;102790.66;5044435;28;19928;-46
2021/12/15 04:23:20;;;;;;;;;;;;;;;17.92;49.57;102788.06;5044737;28;19920;-47
2021/12/15 04:25:47;;;;;;;;;;;;;;;17.92;49.87;102796.13;5044087;28;19920;-49
2021/12/15 04:28:14;;;;;;;;;;;;;;;17.91;49.87;102795.28;5044649;28;20012;-50
2021/12/15 04:30:43;;;;;;;;;;;;;;;17.90;49.58;102807.03;5043674;28;19913;-52
2021/12/15 04:33:30;;;;;;;;;;;;;;;17.90;49.50;102795.41;5044711;28;19921;-49
2021/12/15 04:36:01;;;;;;;;;;;;;;;17.89;49.80;102793.69;5044592;28;19921;-48
2021/12/15 04:38:27;;;;;;;;;;;;;;;17.89;49.88;102802.63;5044574;28;19992;-51
2021/12/15 04:40:52;;;;;;;;;;;;;;;17.88;49.85;102800.91;5043931;28;19917;-51
2021/12/15 04:43:17;;;;;;;;;;;;;;;17.87;49.84;102807.25;5044284;28;19984;-46
2021/12/15 04:45:42;;;;;;;;;;;;;;;17.86;49.64;102802.84;5043335;28;19917;-48
2021/12/15 04:48:08;;;;;;;;;;;;;;;17.87;49.86;102809.06;5044180;28;19944;-52
2021/12/15 04:50:33;;;;;;;;;;;;;;;17.87;49.63;102804.56;5043865;28;19979;-49
2021/12/15 04:53:00;;;;;;;;;;;;;;;17.86;49.75;102800.16;5044094;28;19913;-49
2021/12/15 04:55:27;;;;;;;;;;;;;;;17.86;49.86;102797.47;5043561;28;20449;-48
2021/12/15 04:57:52;;;;;;;;;;;;;;;17.86;49.73;102800.16;5043944;28;19917;-50
2021/12/15 05:00:19;;;;;;;;;;;;;;;17.85;49.69;102801.13;5043853;28;20267;-47
2021/12/15 05:02:44;;;;;;;;;;;;;;;17.86;49.79;102810.06;5043492;28;19996;-48
2021/12/15 05:05:09;;;;;;;;;;;;;;;17.85;49.66;102802.97;5044050;28;20521;-49
2021/12/15 05:07:35;;;;;;;;;;;;;;;17.85;49.65;102813.72;5043673;28;19957;-52
2021/12/15 05:10:00;;;;;;;;;;;;;;;17.84;49.76;102807.50;5043630;28;19913;-46
2021/12/15 05:12:26;;;;;;;;;;;;;;;17.84;49.61;102810.19;5043455;28;19980;-48
2021/12/15 05:14:51;;;;;;;;;;;;;;;17.84;49.59;102810.19;5043361;28;19947;-49
2021/12/15 05:17:18;;;;;;;;;;;;;;;17.83;49.57;102813.81;5042348;28;21353;-50
2021/12/15 05:19:45;;;;;;;;;;;;;;;17.83;49.55;102812.97;5043307;28;19948;-46
2021/12/15 05:22:12;;;;;;;;;;;;;;;17.83;49.82;102815.66;5043573;28;19917;-50
2021/12/15 05:24:37;;;;;;;;;;;;;;;17.82;49.79;102822.88;5043420;28;19980;-50
2021/12/15 05:27:05;;;;;;;;;;;;;;;17.82;49.63;102822.03;5043237;28;19949;-49
2021/12/15 05:29:30;;;;;;;;;;;;;;;17.81;49.81;102823.84;5026247;28;19924;-46
2021/12/15 05:31:55;;;;;;;;;;;;;;;17.81;49.75;102825.69;5022667;28;19945;-55
2021/12/15 05:34:21;;;;;;;;;;;;;;;17.80;49.64;102830.22;5023606;28;19917;-50
2021/12/15 05:36:47;;;;;;;;;;;;;;;17.80;49.70;102822.16;5022070;28;19914;-51
2021/12/15 05:39:12;;;;;;;;;;;;;;;17.81;49.84;102833.78;5023446;28;19914;-51
2021/12/15 05:41:37;;;;;;;;;;;;;;;17.79;49.77;102831.19;5023207;28;19914;-50
2021/12/15 05:44:04;;;;;;;;;;;;;;;17.80;49.79;102832.03;5023336;28;19980;-49
2021/12/15 05:46:29;;;;;;;;;;;;;;;17.78;49.73;102837.53;5031844;28;19920;-51
2021/12/15 05:48:54;;;;;;;;;;;;;;;17.78;49.59;102832.16;5042849;28;19917;-47
2021/12/15 05:51:19;;;;;;;;;;;;;;;17.78;49.60;102836.69;5042924;28;19956;-52
2021/12/15 05:53:46;;;;;;;;;;;;;;;17.77;49.78;102833.13;5042831;28;19913;-48
2021/12/15 05:56:12;;;;;;;;;;;;;;;17.78;49.54;102836.69;5042733;28;19913;-48
2021/12/15 05:58:37;;;;;;;;;;;;;;;17.76;49.68;102831.44;5042979;28;19948;-47
2021/12/15 06:01:03;;;;;;;;;;;;;;;17.77;49.63;102834.97;5042350;28;20350;-48
2021/12/15 06:03:28;;;;;;;;;;;;;;;17.77;49.68;102834.97;5042928;28;19920;-48
2021/12/15 06:05:54;;;;;;;;;;;;;;;17.76;49.61;102834.13;5042972;28;19913;-51
2021/12/15 06:08:19;;;;;;;;;;;;;;;17.75;49.67;102832.38;5041641;28;19913;-48
2021/12/15 06:10:44;;;;;;;;;;;;;;;17.75;49.58;102840.44;5042632;28;19920;-52
2021/12/15 06:13:10;;;;;;;;;;;;;;;17.76;49.81;102844.03;5042802;28;19917;-49
2021/12/15 06:15:36;;;;;;;;;;;;;;;17.76;49.54;102849.41;5041550;28;19964;-48
2021/12/15 06:18:02;;;;;;;;;;;;;;;17.75;49.61;102845.81;5041865;28;20357;-46
2021/12/15 06:20:31;;;;;;;;;;;;;;;17.74;49.56;102847.66;5042097;28;19945;-51
2021/12/15 06:22:59;;;;;;;;;;;;;;;17.74;49.65;102847.66;5040832;28;19933;-49
2021/12/15 06:25:24;;;;;;;;;;;;;;;17.74;49.95;102847.66;5039414;28;19952;-49
2021/12/15 06:27:50;;;;;;;;;;;;;;;17.76;49.80;102849.41;5042040;28;19920;-48
2021/12/15 06:30:15;;;;;;;;;;;;;;;17.75;49.80;102845.81;5041899;28;19913;-52
2021/12/15 06:32:41;;;;;;;;;;;;;;;17.74;49.85;102839.59;5040915;28;19929;-50
2021/12/15 06:35:07;;;;;;;;;;;;;;;17.76;49.96;102852.09;5041991;28;19921;-48
2021/12/15 06:37:32;;;;;;;;;;;;;;;17.76;49.91;102861.03;5041735;28;19928;-48
2021/12/15 06:39:57;;;;;;;;;;;;;;;17.76;50.01;102852.94;5038914;28;19925;-49
2021/12/15 06:42:22;;;;;;;;;;;;;;;17.77;50.01;102851.97;5057322;28;19913;-52
2021/12/15 06:44:48;;;;;;;;;;;;;;;17.76;49.88;102852.94;5045682;28;19956;-48
2021/12/15 07:00:46;;;;;;;;;;;;;;;17.77;50.16;102864.56;5051962;28;19913;-48
2021/12/15 07:03:11;;;;;;;;;;;;;;;17.76;50.18;102858.34;5045058;28;19936;-53
2021/12/15 07:05:37;;;;;;;;;;;;;;;17.77;49.99;102860.03;5043350;28;19913;-52
2021/12/15 07:08:03;;;;;;;;;;;;;;;17.76;50.27;102869.09;5042936;28;19924;-54
2021/12/15 07:10:29;;;;;;;;;;;;;;;17.76;50.12;102871.78;5045455;28;19967;-52
2021/12/15 07:12:54;;;;;;;;;;;;;;;17.75;49.97;102880.81;5045298;28;19913;-53
2021/12/15 07:15:20;;;;;;;;;;;;;;;17.75;50.17;102880.81;5045349;28;19951;-51
2021/12/15 07:17:48;;;;;;;;;;;;;;;17.76;50.18;102876.31;5042507;28;19921;-49
2021/12/15 07:20:49;;;;;;;;;;;;;;;17.76;50.13;102882.53;5045396;28;19936;-52
2021/12/15 07:23:07;;;;;;;;;;;;;;;17.77;50.43;102880.72;5039384;28;19917;-52
2021/12/15 07:25:33;;;;;;;;;;;;;;;17.76;50.30;102877.16;5039372;28;19917;-52
2021/12/15 07:27:58;;;;;;;;;;;;;;;17.77;50.33;102884.25;5041598;28;19919;-53
2021/12/15 07:30:24;;;;;;;;;;;;;;;17.74;50.47;102876.41;5045076;28;19913;-47
2021/12/15 07:32:49;;;;;;;;;;;;;;;17.76;50.46;102877.16;5044388;28;19924;-51
2021/12/15 07:35:15;;;;;;;;;;;;;;;17.76;50.44;102881.69;5044769;28;19921;-47
2021/12/15 07:37:40;;;;;;;;;;;;;;;17.77;50.44;102886.09;5044707;28;19917;-51
2021/12/15 07:40:10;;;;;;;;;;;;;;;17.77;50.37;102888.78;5044405;28;20007;-51
2021/12/15 07:42:42;;;;;;;;;;;;;;;17.76;50.40;102882.53;5044728;28;19928;-51
2021/12/15 07:45:08;;;;;;;;;;;;;;;17.79;50.52;102893.06;5043070;28;19919;-51
2021/12/15 07:47:34;;;;;;;;;;;;;;;17.80;50.42;102892.09;5044358;28;19976;-51
2021/12/15 07:50:01;;;;;;;;;;;;;;;17.82;50.44;102894.69;5044724;28;19996;-50
2021/12/15 07:52:26;;;;;;;;;;;;;;;17.84;50.39;102898.09;5044896;28;19913;-53
2021/12/15 07:54:51;;;;;;;;;;;;;;;17.85;50.42;102898.00;5043915;28;19971;-52
2021/12/15 07:57:19;;;;;;;;;;;;;;;17.89;50.37;102898.66;5044370;28;19921;-47
2021/12/15 07:59:44;;;;;;;;;;;;;;;17.89;50.13;102901.34;5043263;28;19917;-52
2021/12/15 08:02:09;;;;;;;;;;;;;;;17.90;50.23;102901.22;5044508;28;19917;-53
2021/12/15 08:04:34;;;;;;;;;;;;;;;17.90;50.28;102898.50;5044761;28;19952;-50
2021/12/15 08:07:00;;;;;;;;;;;;;;;17.91;50.18;102897.53;5044832;28;20472;-50
2021/12/15 08:09:25;;;;;;;;;;;;;;;17.91;50.30;102897.53;5043792;28;19917;-50
2021/12/15 08:11:50;;;;;;;;;;;;;;;17.91;50.09;102900.22;5044143;28;19928;-47
2021/12/15 08:14:15;;;;;;;;;;;;;;;17.92;50.09;102898.38;5043729;28;19927;-50
2021/12/15 08:16:41;;;;;;;;;;;;;;;17.93;50.14;102903.69;5035738;28;19932;-48
2021/12/15 08:19:07;;;;;;;;;;;;;;;17.93;50.28;102902.81;5024792;28;20051;-49
2021/12/15 08:21:33;;;;;;;;;;;;;;;17.93;50.30;102905.53;5025828;28;19976;-52
2021/12/15 08:23:58;;;;;;;;;;;;;;;17.92;50.35;102901.94;5044507;28;19936;-52
2021/12/15 08:26:23;;;;;;;;;;;;;;;17.93;50.10;102910.91;5044416;28;19914;-52
2021/12/15 08:28:48;;;;;;;;;;;;;;;17.92;50.29;102899.25;5044007;28;19963;-52
2021/12/15 08:31:13;;;;;;;;;;;;;;;17.93;50.32;102903.69;5043693;28;19996;-51
2021/12/15 08:33:38;;;;;;;;;;;;;;;17.93;50.04;102911.75;5044199;28;19953;-51
2021/12/15 08:36:05;;;;;;;;;;;;;;;17.94;50.20;102909.91;5044364;28;19919;-49
2021/12/15 08:38:32;;;;;;;;;;;;;;;17.94;50.21;102912.59;5044330;28;19920;-48
2021/12/15 08:40:58;;;;;;;;;;;;;;;17.93;50.20;102914.44;5044249;28;19913;-49
2021/12/15 08:43:23;;;;;;;;;;;;;;;17.93;50.01;102913.59;5044271;28;20310;-51
2021/12/15 08:46:01;;;;;;;;;;;;;;;17.93;50.13;102918.97;5042925;28;20396;-52
2021/12/15 08:48:26;;;;;;;;;;;;;;;17.93;50.20;102908.22;5044334;28;19913;-52
2021/12/15 08:50:51;;;;;;;;;;;;;;;17.93;49.97;102913.59;5044047;28;20009;-52
2021/12/15 08:53:17;;;;;;;;;;;;;;;17.93;49.90;102914.44;5044085;28;19913;-53
2021/12/15 08:55:43;;;;;;;;;;;;;;;17.93;50.08;102911.75;5043502;28;19921;-54
2021/12/15 08:58:11;;;;;;;;;;;;;;;17.92;50.01;102910.00;5043940;28;19913;-51
2021/12/15 09:00:36;;;;;;;;;;;;;;;17.92;50.01;102907.31;5043039;28;20028;-51
2021/12/15 09:03:02;;;;;;;;;;;;;;;17.93;49.97;102913.59;5044115;28;20393;-52
2021/12/15 09:05:27;;;;;;;;;;;;;;;17.94;49.89;102912.59;5043056;28;19968;-52
2021/12/15 09:07:53;;;;;;;;;;;;;;;17.94;49.80;102909.91;5043736;28;19913;-52
2021/12/15 09:10:19;;;;;;;;;;;;;;;17.95;49.93;102908.94;5043489;28;19913;-49
2021/12/15 09:12:44;;;;;;;;;;;;;;;17.95;49.88;102911.63;5043684;28;19913;-52
2021/12/15 09:15:10;;;;;;;;;;;;;;;17.95;49.65;102906.25;5043211;28;20019;-52
2021/12/15 09:17:35;;;;;;;;;;;;;;;17.95;49.71;102915.19;5043038;28;19924;-52
2021/12/15 09:20:01;;;;;;;;;;;;;;;17.95;49.67;102914.31;5043499;28;19921;-49
2021/12/15 09:22:26;;;;;;;;;;;;;;;17.95;49.71;102908.94;5043556;28;19913;-52
2021/12/15 09:24:51;;;;;;;;;;;;;;;17.95;49.81;102917.88;5043309;28;19921;-51
2021/12/15 09:27:16;;;;;;;;;;;;;;;17.96;49.62;102913.34;5043111;28;20046;-50
2021/12/15 09:29:41;;;;;;;;;;;;;;;17.98;49.70;102924.88;5043162;28;19924;-49
2021/12/15 09:32:07;;;;;;;;;;;;;;;17.98;49.67;102924.88;5042961;28;19938;-51
2021/12/15 09:34:32;;;;;;;;;;;;;;;17.99;49.69;102921.19;5043187;28;19948;-52
2021/12/15 09:36:57;;;;;;;;;;;;;;;18.00;49.55;102928.28;5043602;28;19913;-51
2021/12/15 09:39:22;;;;;;;;;;;;;;;18.01;49.61;102921.97;5043231;28;19912;-50
2021/12/15 09:41:48;;;;;;;;;;;;;;;18.03;49.62;102933.47;5043113;28;19913;-48
2021/12/15 09:44:16;;;;;;;;;;;;;;;18.03;49.38;102929.91;5043137;28;19914;-53
2021/12/15 10:03:04;;;;;;;;;;;;;;;18.08;49.43;102963.56;5043184;28;19935;-51
2021/12/15 10:11:16;;;;;;;;;;;;;;;18.11;49.22;102971.44;5021154;28;20000;-49
2021/12/15 10:19:21;;;;;;;;;;;;;;;18.16;49.08;102973.78;5049422;28;19920;-52
2021/12/15 10:21:55;;;;;;;;;;;;;;;18.17;49.04;102968.28;5049218;28;19913;-53
2021/12/15 10:24:25;;;;;;;;;;;;;;;18.18;48.96;102967.31;5049505;28;19913;-53
2021/12/15 10:26:55;;;;;;;;;;;;;;;18.20;49.18;102970.75;5048986;28;20010;-50
2021/12/15 10:29:21;;;;;;;;;;;;;;;18.23;48.95;102966.97;5049049;28;19948;-52
2021/12/15 10:31:55;;;;;;;;;;;;;;;18.24;48.96;102969.56;5048520;28;19913;-52
2021/12/15 10:34:20;;;;;;;;;;;;;;;18.26;49.12;102966.72;5049335;28;19921;-51
2021/12/15 10:36:47;;;;;;;;;;;;;;;18.27;48.89;102960.41;5048816;28;19963;-51
2021/12/15 10:39:12;;;;;;;;;;;;;;;18.29;48.80;102957.59;5048935;28;19924;-49
2021/12/15 10:41:39;;;;;;;;;;;;;;;18.30;48.84;102953.91;5047533;28;19914;-51
2021/12/15 10:44:13;;;;;;;;;;;;;;;18.32;48.76;102960.06;5049168;28;19950;-51
2021/12/15 10:46:39;;;;;;;;;;;;;;;18.33;48.73;102961.75;5048171;28;19971;-50
2021/12/15 10:49:08;;;;;;;;;;;;;;;18.35;48.85;102963.38;5047632;28;20396;-50
2021/12/15 10:51:36;;;;;;;;;;;;;;;18.38;48.80;102964.97;5048949;28;19913;-51
2021/12/15 10:54:05;;;;;;;;;;;;;;;18.41;48.59;102970.13;5048853;28;19916;-53
2021/12/15 10:56:32;;;;;;;;;;;;;;;18.43;48.54;102973.56;5048384;28;19913;-50
2021/12/15 10:58:59;;;;;;;;;;;;;;;18.46;48.46;102962.56;5048392;28;19921;-52
2021/12/15 11:01:34;;;;;;;;;;;;;;;18.46;48.49;102958.03;5048164;28;20355;-50
2021/12/15 11:04:00;;;;;;;;;;;;;;;18.49;48.48;102965.03;5049056;28;19967;-51
2021/12/15 11:06:32;;;;;;;;;;;;;;;18.53;48.53;102960.28;5049048;28;20059;-52
2021/12/15 11:09:10;;;;;;;;;;;;;;;18.53;48.58;102955.75;5049114;28;19913;-49
2021/12/15 11:11:35;;;;;;;;;;;;;;;18.55;48.58;102961.00;5048621;28;19913;-51
2021/12/15 11:14:02;;;;;;;;;;;;;;;18.56;48.59;102960.88;5048666;28;19984;-52
2021/12/15 11:16:28;;;;;;;;;;;;;;;18.57;48.42;102959.91;5046342;28;20378;-49
2021/12/15 11:18:53;;;;;;;;;;;;;;;18.60;48.53;102961.50;5048830;28;19913;-49
2021/12/15 11:21:20;;;;;;;;;;;;;;;18.62;48.35;102956.88;5048532;28;19924;-50
2021/12/15 11:23:45;;;;;;;;;;;;;;;18.62;48.28;102957.72;5048864;28;19913;-54
2021/12/15 11:26:12;;;;;;;;;;;;;;;18.66;48.44;102958.34;5048429;28;19940;-53
2021/12/15 11:28:44;;;;;;;;;;;;;;;18.67;48.48;102952.84;5047026;28;19913;-52
2021/12/15 11:31:16;;;;;;;;;;;;;;;18.71;48.73;102948.97;5044887;28;20425;-50
2021/12/15 11:33:49;;;;;;;;;;;;;;;18.75;48.33;102954.97;5045601;28;19921;-53
2021/12/15 11:36:19;;;;;;;;;;;;;;;18.78;48.59;102954.75;5045302;28;19924;-51
2021/12/15 11:38:44;;;;;;;;;;;;;;;18.79;48.44;102961.00;5045209;28;20385;-53
2021/12/15 11:41:19;;;;;;;;;;;;;;;18.80;48.29;102955.47;5044600;28;20293;-50
2021/12/15 11:43:45;;;;;;;;;;;;;;;18.82;48.63;102953.53;5044780;28;20018;-51
2021/12/15 11:46:16;;;;;;;;;;;;;;;18.83;48.67;102944.47;5042601;28;19920;-54
2021/12/15 11:48:41;;;;;;;;;;;;;;;18.84;48.58;102942.63;5045060;28;20545;-51
2021/12/15 11:51:07;;;;;;;;;;;;;;;18.84;48.52;102940.78;5045071;28;19913;-50
2021/12/15 11:53:43;;;;;;;;;;;;;;;18.85;48.68;102936.25;5045313;28;19928;-53
2021/12/15 11:56:20;;;;;;;;;;;;;;;18.86;48.59;102932.56;5044501;28;19948;-51
2021/12/15 11:58:46;;;;;;;;;;;;;;;18.88;48.78;102934.19;5044760;28;19948;-52
2021/12/15 12:01:31;;;;;;;;;;;;;;;18.91;48.84;102927.72;5044450;28;19913;-51
2021/12/15 12:04:10;;;;;;;;;;;;;;;18.94;48.72;102925.59;5045024;28;19970;-49
2021/12/15 12:06:35;;;;;;;;;;;;;;;18.97;48.36;102930.78;5057267;28;19996;-51
2021/12/15 12:09:00;;;;;;;;;;;;;;;19.01;48.51;102933.25;5044379;28;20513;-50
2021/12/15 12:11:25;;;;;;;;;;;;;;;19.03;48.67;102936.66;5043969;28;19913;-52
2021/12/15 12:13:58;;;;;;;;;;;;;;;19.06;48.46;102939.97;5059315;28;19917;-49
2021/12/15 12:16:24;;;;;;;;;;;;;;;19.08;48.59;102935.34;5041570;28;19947;-49
2021/12/15 12:18:49;;;;;;;;;;;;;;;19.09;48.75;102931.66;5059854;28;19919;-52
2021/12/15 12:21:14;;;;;;;;;;;;;;;19.10;48.53;102932.50;5043119;28;20345;-49
2021/12/15 12:23:44;;;;;;;;;;;;;;;19.10;48.44;102927.13;5043103;28;19914;-49
2021/12/15 12:26:10;;;;;;;;;;;;;;;19.12;48.56;102920.63;5050421;28;19913;-52
2021/12/15 12:28:37;;;;;;;;;;;;;;;19.14;48.46;102928.59;5043775;28;19959;-54
2021/12/15 12:31:21;;;;;;;;;;;;;;;19.15;48.08;102928.47;5043510;28;19917;-50
2021/12/15 12:33:46;;;;;;;;;;;;;;;19.18;48.31;102924.69;5042214;28;19932;-52
2021/12/15 12:36:14;;;;;;;;;;;;;;;19.19;48.49;102923.69;5044003;28;20352;-53
2021/12/15 12:38:40;;;;;;;;;;;;;;;19.21;48.23;102917.22;5041097;28;19922;-51
2021/12/15 12:41:14;;;;;;;;;;;;;;;19.23;48.51;102917.06;5042371;28;20031;-51
2021/12/15 12:43:43;;;;;;;;;;;;;;;19.25;48.31;102922.38;5043235;28;20366;-52
2021/12/15 13:00:31;;;;;;;;;;;;;;;19.34;48.36;102916.22;5043166;28;19959;-51
2021/12/15 13:03:00;;;;;;;;;;;;;;;19.34;48.46;102919.78;5041568;28;19924;-51
2021/12/15 13:05:31;;;;;;;;;;;;;;;19.35;48.50;102915.25;5043624;28;19921;-52
2021/12/15 13:07:59;;;;;;;;;;;;;;;19.35;48.62;102915.25;5041315;28;19921;-50
2021/12/15 13:10:43;;;;;;;;;;;;;;;19.34;48.51;102911.69;5043101;28;19917;-51
2021/12/15 13:13:15;;;;;;;;;;;;;;;19.34;48.56;102910.84;5040028;28;19913;-54
2021/12/15 13:15:41;;;;;;;;;;;;;;;19.34;48.46;102908.13;5041985;28;19928;-50
2021/12/15 13:18:11;;;;;;;;;;;;;;;19.33;48.68;102909.97;5043145;28;19913;-52
2021/12/15 13:20:37;;;;;;;;;;;;;;;19.31;48.62;102906.53;5039632;28;20003;-47
2021/12/15 13:23:27;;;;;;;;;;;;;;;19.30;48.97;102914.75;5040200;28;19924;-50
2021/12/15 13:28:43;;;;;;;;;;;;;;;19.26;48.68;102922.22;5042640;28;19936;-50
2021/12/15 13:31:11;;;;;;;;;;;;;;;19.23;48.90;102914.38;5042718;28;19920;-50
2021/12/15 13:33:38;;;;;;;;;;;;;;;19.22;48.84;102918.91;5043331;28;19996;-51
2021/12/15 13:36:07;;;;;;;;;;;;;;;19.20;48.79;102928.97;5043499;28;19921;-53
2021/12/15 13:38:34;;;;;;;;;;;;;;;19.17;48.83;102926.53;5043188;28;20546;-52
2021/12/15 13:41:10;;;;;;;;;;;;;;;19.15;48.71;102928.47;5058305;28;19913;-50
2021/12/15 13:43:43;;;;;;;;;;;;;;;19.14;48.75;102929.44;5043190;28;19924;-54
2021/12/15 13:46:27;;;;;;;;;;;;;;;19.14;48.67;102929.44;5042400;28;19939;-59
2021/12/15 13:48:56;;;;;;;;;;;;;;;19.13;48.90;102941.22;5042837;28;19937;-50
2021/12/15 13:51:40;;;;;;;;;;;;;;;19.12;48.67;102933.25;5043035;28;20472;-50
2021/12/15 13:54:16;;;;;;;;;;;;;;;19.13;48.73;102937.66;5042797;28;19917;-50
2021/12/15 13:57:01;;;;;;;;;;;;;;;19.12;48.83;102930.56;5041200;28;19928;-52
2021/12/15 13:59:30;;;;;;;;;;;;;;;19.11;48.99;102940.47;5041866;28;19945;-47
2021/12/15 14:02:12;;;;;;;;;;;;;;;19.11;48.83;102936.91;5041920;28;19940;-51
2021/12/15 14:04:41;;;;;;;;;;;;;;;19.11;48.97;102943.16;5042233;28;19917;-48
2021/12/15 14:07:25;;;;;;;;;;;;;;;19.10;49.01;102949.53;5042548;28;19916;-53